Sheffield Township, Ohio
Current Conditions -  °F | °C
As of 12:53 AM on Sunday 26 Oct 2014 (Local Time) from KLPR Reporting Station
Clear Clear  
Wind Chill: 53°   Ceiling: Unl
Heat Index: 53°   Visibility: 10mi
Dew Point: 35°   Wind: 9mph
Humidity: 50%   Direction: 290°WNW
Pressure: 29.83"   Gusts: NA
Location:  41.465°N, 82.0929°W
Report Text: KLPR 260453Z AUTO 29008KT 10SM CLR 12/02 A2983 RMK AO2 SLP098 T01170017 402110078 PWINO TSNO $
Loading
Personal Weather Stations






























Interactive Weather Map
Tropical Storm Tracking
New forecast layout! Learn more

10-Day Weather Forecast

Advertisements
Track Severe Weather on mobile